Terminal Aerodrome Forecast
Issued by NWS San Angelo, TX

Home | Current Version | Previous Version | Text Only | Print | Product List | Glossary On
Versions: 1 2 3 4 5 6 7 8 9 10 11 12 13
000
FTUS44 KSJT 310400 AAA
TAFSJT
TAF AMD
KSJT 310436Z 3105/3124 08007KT P6SM BKN050
     FM310800 10008KT 5SM -RA BR OVC015
     FM311000 13010KT 3SM RA BR OVC007=

USA.gov is the U.S. government's official web portal to all federal, state and local government web resources and services.